createdAt,value
2022-10-09T00:01:18.785Z,3.03
2022-10-09T00:03:47.899Z,3.10
2022-10-09T00:06:17.198Z,3.17
2022-10-09T00:08:45.409Z,3.60
2022-10-09T00:11:15.811Z,2.93
2022-10-09T00:13:44.089Z,2.97
2022-10-09T00:16:13.333Z,3.30
2022-10-09T00:18:41.629Z,3.40
2022-10-09T00:21:16.686Z,3.10
2022-10-09T00:23:44.898Z,3.27
2022-10-09T00:26:13.361Z,3.57
2022-10-09T00:28:43.073Z,3.60
2022-10-09T00:31:12.458Z,3.53
2022-10-09T00:33:40.875Z,3.63
2022-10-09T00:36:10.266Z,3.60
2022-10-09T00:38:38.554Z,3.07
2022-10-09T00:41:06.919Z,3.53
2022-10-09T00:43:40.498Z,3.30
2022-10-09T00:46:12.875Z,3.47
2022-10-09T00:48:41.193Z,3.30
2022-10-09T00:51:09.488Z,3.63
2022-10-09T00:53:37.746Z,3.17
2022-10-09T00:56:06.306Z,3.13
2022-10-09T00:58:34.540Z,3.50
2022-10-09T01:01:03.023Z,3.40
2022-10-09T01:03:32.693Z,3.07
2022-10-09T01:06:04.447Z,3.47
2022-10-09T01:08:33.652Z,3.27
2022-10-09T01:11:06.729Z,3.70
2022-10-09T01:13:37.862Z,4.23
2022-10-09T01:16:08.736Z,4.07
2022-10-09T01:18:40.521Z,3.70
2022-10-09T01:21:10.192Z,3.43
2022-10-09T01:24:02.971Z,3.93
2022-10-09T01:26:47.052Z,3.63
2022-10-09T01:29:16.420Z,3.80
2022-10-09T01:31:46.607Z,3.50
2022-10-09T01:34:16.097Z,3.33
2022-10-09T01:36:44.948Z,3.30
2022-10-09T01:39:15.245Z,3.50
2022-10-09T01:41:43.731Z,3.17
2022-10-09T01:44:19.778Z,3.70
2022-10-09T01:46:48.302Z,3.50
2022-10-09T01:49:21.492Z,3.50
2022-10-09T01:51:53.295Z,3.30
2022-10-09T01:54:26.917Z,3.63
2022-10-09T01:56:57.183Z,3.27
2022-10-09T01:59:27.912Z,3.50
2022-10-09T02:01:57.857Z,3.17
2022-10-09T02:04:26.496Z,3.60
2022-10-09T02:06:55.868Z,3.97
2022-10-09T02:09:24.359Z,3.53
2022-10-09T02:11:54.815Z,2.83
2022-10-09T02:14:23.051Z,3.10
2022-10-09T02:16:54.650Z,3.83
2022-10-09T02:19:24.765Z,3.57
2022-10-09T02:21:54.786Z,3.20
2022-10-09T02:24:23.823Z,3.30
2022-10-09T02:26:52.387Z,3.27
2022-10-09T02:29:20.831Z,3.10
2022-10-09T02:31:49.018Z,3.10
2022-10-09T02:34:19.792Z,3.40
2022-10-09T02:36:48.463Z,3.17
2022-10-09T02:39:16.637Z,2.90
2022-10-09T02:41:44.849Z,3.30
2022-10-09T02:44:13.088Z,3.40
2022-10-09T02:46:41.372Z,3.23
2022-10-09T02:49:09.638Z,3.30
2022-10-09T02:51:39.156Z,3.20
2022-10-09T02:54:07.522Z,2.80
2022-10-09T02:56:38.967Z,3.10
2022-10-09T02:59:07.509Z,3.17
2022-10-09T03:01:35.787Z,3.10
2022-10-09T03:04:04.383Z,3.33
2022-10-09T03:06:32.638Z,3.17
2022-10-09T03:09:02.210Z,3.33
2022-10-09T03:11:30.364Z,3.37
2022-10-09T03:13:58.578Z,2.93
2022-10-09T03:16:27.717Z,2.87
2022-10-09T03:18:56.417Z,3.03
2022-10-09T03:21:25.367Z,3.00
2022-10-09T03:23:54.000Z,3.20
2022-10-09T03:26:24.315Z,2.87
2022-10-09T03:28:53.536Z,3.13
2022-10-09T03:31:47.021Z,3.50
2022-10-09T03:34:12.028Z,3.40
2022-10-09T03:36:40.193Z,3.33
2022-10-09T03:39:08.371Z,3.00
2022-10-09T03:41:37.909Z,3.03
2022-10-09T03:44:06.144Z,3.10
2022-10-09T03:46:34.414Z,3.23
2022-10-09T03:49:02.739Z,2.90
2022-10-09T03:51:30.944Z,2.97
2022-10-09T03:53:59.330Z,2.73
2022-10-09T03:56:27.491Z,2.70
2022-10-09T03:58:56.992Z,3.20
2022-10-09T04:01:25.235Z,2.87
2022-10-09T04:03:53.434Z,3.53
2022-10-09T04:06:21.576Z,3.50
2022-10-09T04:08:49.746Z,3.20
2022-10-09T04:11:17.909Z,3.00
2022-10-09T04:13:46.064Z,3.20
2022-10-09T04:16:15.682Z,3.07
2022-10-09T04:18:44.467Z,3.37
2022-10-09T04:21:13.386Z,3.33
2022-10-09T04:23:41.854Z,3.10
2022-10-09T04:26:12.492Z,3.03
2022-10-09T04:28:40.868Z,3.30
2022-10-09T04:31:09.156Z,3.20
2022-10-09T04:33:38.851Z,3.60
2022-10-09T04:36:07.313Z,3.03
2022-10-09T04:38:35.518Z,3.70
2022-10-09T04:41:04.747Z,3.97
2022-10-09T04:43:33.171Z,2.90
2022-10-09T04:46:05.149Z,3.00
2022-10-09T04:48:33.406Z,3.20
2022-10-09T04:51:05.121Z,3.33
2022-10-09T04:53:33.463Z,3.43
2022-10-09T04:56:03.819Z,3.23
2022-10-09T04:58:32.377Z,3.80
2022-10-09T05:01:00.663Z,3.40
2022-10-09T05:03:28.882Z,3.13
2022-10-09T05:06:03.515Z,3.50
2022-10-09T05:08:31.993Z,3.33
2022-10-09T05:11:03.264Z,3.40
2022-10-09T05:13:32.006Z,3.50
2022-10-09T05:16:03.025Z,3.90
2022-10-09T05:18:31.751Z,3.23
2022-10-09T05:20:59.919Z,3.27
2022-10-09T05:23:29.460Z,3.93
2022-10-09T05:25:58.050Z,3.80
2022-10-09T05:28:26.602Z,3.60
2022-10-09T05:30:55.197Z,4.10
2022-10-09T05:33:23.798Z,3.70
2022-10-09T05:35:53.021Z,3.90
2022-10-09T05:38:21.634Z,4.00
2022-10-09T05:40:54.512Z,4.07
2022-10-09T05:43:24.498Z,5.40
2022-10-09T05:45:52.878Z,17.53
2022-10-09T05:48:21.520Z,10.37
2022-10-09T05:50:49.760Z,9.40
2022-10-09T05:53:17.936Z,5.43
2022-10-09T05:55:46.096Z,5.90
2022-10-09T05:58:15.629Z,4.50
2022-10-09T06:00:44.415Z,4.67
2022-10-09T06:03:12.718Z,4.87
2022-10-09T06:05:40.947Z,4.17
2022-10-09T06:08:09.180Z,4.43
2022-10-09T06:10:37.384Z,3.90
2022-10-09T06:13:05.553Z,3.93
2022-10-09T06:15:35.129Z,4.10
2022-10-09T06:18:03.339Z,3.87
2022-10-09T06:20:31.548Z,4.30
2022-10-09T06:22:59.757Z,7.43
2022-10-09T06:25:27.986Z,8.40
2022-10-09T06:27:56.177Z,8.57
2022-10-09T06:30:24.369Z,4.30
2022-10-09T06:32:53.948Z,4.83
2022-10-09T06:35:22.155Z,5.20
2022-10-09T06:37:50.430Z,5.90
2022-10-09T06:40:18.600Z,5.63
2022-10-09T06:42:47.070Z,5.70
2022-10-09T06:45:15.594Z,6.37
2022-10-09T06:47:43.847Z,5.57
2022-10-09T06:50:13.399Z,6.20
2022-10-09T06:52:41.598Z,5.97
2022-10-09T06:55:10.018Z,6.03
2022-10-09T06:57:38.305Z,6.00
2022-10-09T07:00:06.962Z,5.23
2022-10-09T07:02:41.744Z,5.03
2022-10-09T07:05:13.415Z,5.07
2022-10-09T07:07:42.175Z,5.20
2022-10-09T07:10:11.346Z,4.40
2022-10-09T07:12:39.641Z,5.07
2022-10-09T07:15:08.502Z,4.93
2022-10-09T07:17:36.851Z,5.47
2022-10-09T07:20:05.125Z,5.13
2022-10-09T07:22:35.327Z,4.80
2022-10-09T07:25:03.543Z,4.50
2022-10-09T07:27:31.882Z,5.30
2022-10-09T07:30:00.813Z,4.57
2022-10-09T07:32:28.982Z,4.60
2022-10-09T07:34:57.193Z,4.43
2022-10-09T07:37:25.441Z,4.87
2022-10-09T07:39:54.977Z,4.50
2022-10-09T07:42:23.205Z,5.03
2022-10-09T07:44:51.380Z,4.83
2022-10-09T07:47:19.564Z,5.13
2022-10-09T07:49:47.778Z,5.00
2022-10-09T07:52:16.056Z,4.63
2022-10-09T07:54:44.242Z,5.00
2022-10-09T07:57:13.828Z,4.63
2022-10-09T07:59:42.060Z,4.70
2022-10-09T08:02:10.379Z,4.27
2022-10-09T08:04:38.656Z,4.73
2022-10-09T08:07:06.888Z,4.03
2022-10-09T08:09:35.170Z,4.60
2022-10-09T08:12:03.441Z,4.80
2022-10-09T08:14:33.097Z,4.60
2022-10-09T08:17:02.083Z,4.33
2022-10-09T08:19:30.293Z,4.30
2022-10-09T08:22:02.624Z,4.93
2022-10-09T08:24:31.814Z,4.60
2022-10-09T08:27:00.133Z,4.50
2022-10-09T08:29:28.328Z,5.43
2022-10-09T08:31:57.892Z,4.30
2022-10-09T08:34:26.145Z,4.70
2022-10-09T08:36:54.408Z,4.70
2022-10-09T08:39:22.651Z,4.53
2022-10-09T08:41:51.696Z,4.17
2022-10-09T08:44:21.643Z,4.47
2022-10-09T08:47:04.804Z,5.17
2022-10-09T08:49:38.269Z,4.20
2022-10-09T08:52:14.016Z,4.90
2022-10-09T08:54:42.243Z,4.40
2022-10-09T08:57:12.868Z,4.13
2022-10-09T08:59:41.223Z,4.63
2022-10-09T09:02:20.282Z,4.50
2022-10-09T09:04:54.968Z,4.17
2022-10-09T09:07:28.697Z,3.90
2022-10-09T09:10:01.800Z,3.90
2022-10-09T09:12:34.799Z,4.50
2022-10-09T09:15:14.952Z,3.70
2022-10-09T09:17:46.849Z,4.27
2022-10-09T09:20:22.047Z,4.03
2022-10-09T09:22:51.615Z,4.00
2022-10-09T09:25:21.878Z,4.00
2022-10-09T09:27:50.440Z,3.70
2022-10-09T09:30:21.394Z,3.80
2022-10-09T09:32:54.145Z,3.93
2022-10-09T09:35:27.249Z,3.73
2022-10-09T09:37:55.542Z,3.60
2022-10-09T09:40:36.324Z,3.57
2022-10-09T09:43:07.445Z,3.97
2022-10-09T09:45:35.666Z,3.87
2022-10-09T09:48:07.969Z,3.93
2022-10-09T09:50:53.057Z,5.70
2022-10-09T09:53:29.236Z,3.90
2022-10-09T09:55:57.911Z,3.23
2022-10-09T09:58:35.522Z,3.43
2022-10-09T10:01:06.365Z,3.90
2022-10-09T10:03:37.216Z,3.43
2022-10-09T10:06:22.127Z,3.60
2022-10-09T10:08:59.262Z,3.40
2022-10-09T10:11:27.541Z,3.70
2022-10-09T10:13:55.812Z,3.77
2022-10-09T10:16:25.622Z,3.00
2022-10-09T10:18:54.846Z,3.20
2022-10-09T10:21:24.551Z,3.37
2022-10-09T10:23:54.369Z,3.27
2022-10-09T10:26:26.237Z,3.23
2022-10-09T10:28:56.410Z,3.37
2022-10-09T10:31:42.312Z,3.00
2022-10-09T10:34:16.013Z,3.30
2022-10-09T10:36:46.016Z,3.17
2022-10-09T10:39:19.636Z,3.00
2022-10-09T10:41:49.477Z,3.45
2022-10-09T10:44:22.058Z,3.10
2022-10-09T10:46:52.603Z,3.25
2022-10-09T10:49:22.109Z,3.30
2022-10-09T10:51:58.743Z,3.40
2022-10-09T10:54:32.334Z,2.65
2022-10-09T10:57:06.852Z,2.92
2022-10-09T10:59:39.599Z,3.08
2022-10-09T11:02:22.674Z,3.20
2022-10-09T11:04:55.918Z,3.03
2022-10-09T11:07:31.476Z,2.70
2022-10-09T11:10:03.768Z,3.08
2022-10-09T11:12:47.869Z,3.10
2022-10-09T11:15:21.186Z,3.03
2022-10-09T11:17:54.759Z,3.00
2022-10-09T11:20:56.274Z,2.90
2022-10-09T11:23:30.624Z,2.90
2022-10-09T11:26:00.936Z,3.03
2022-10-09T11:28:30.183Z,2.78
2022-10-09T11:31:02.640Z,2.47
2022-10-09T11:33:34.100Z,2.30
2022-10-09T11:36:03.855Z,2.65
2022-10-09T11:38:35.518Z,2.60
2022-10-09T11:41:07.077Z,2.58
2022-10-09T11:43:42.180Z,2.40
2022-10-09T11:46:12.689Z,2.35
2022-10-09T11:48:44.447Z,2.58
2022-10-09T11:51:16.772Z,2.20
2022-10-09T11:53:46.690Z,2.15
2022-10-09T11:56:22.051Z,2.28
2022-10-09T11:58:57.483Z,2.22
2022-10-09T12:01:26.415Z,2.20
2022-10-09T12:04:01.344Z,2.75
2022-10-09T12:06:29.677Z,2.20
2022-10-09T12:09:01.388Z,2.00
2022-10-09T12:11:30.173Z,2.13
2022-10-09T12:13:59.635Z,1.70
2022-10-09T12:16:45.902Z,1.60
2022-10-09T12:19:17.189Z,1.80
2022-10-09T12:21:49.015Z,1.98
2022-10-09T12:24:21.115Z,1.70
2022-10-09T12:26:49.612Z,1.80
2022-10-09T12:29:20.630Z,2.10
2022-10-09T12:31:48.944Z,2.00
2022-10-09T12:34:19.389Z,1.90
2022-10-09T12:36:47.588Z,2.22
2022-10-09T12:39:17.201Z,1.60
2022-10-09T12:41:48.290Z,1.70
2022-10-09T12:44:28.406Z,1.38
2022-10-09T12:46:57.678Z,1.40
2022-10-09T12:49:26.658Z,1.60
2022-10-09T12:51:56.743Z,1.50
2022-10-09T12:54:25.908Z,1.92
2022-10-09T12:56:56.967Z,1.55
2022-10-09T12:59:26.569Z,1.25
2022-10-09T13:01:57.641Z,1.98
2022-10-09T13:04:27.452Z,1.60
2022-10-09T13:06:56.744Z,2.00
2022-10-09T13:09:26.412Z,1.52
2022-10-09T13:11:57.704Z,1.75
2022-10-09T13:14:26.977Z,1.80
2022-10-09T13:16:55.255Z,2.08
2022-10-09T13:19:25.369Z,2.00
2022-10-09T13:22:03.422Z,1.70
2022-10-09T13:24:31.611Z,1.65
2022-10-09T13:27:01.157Z,1.77
2022-10-09T13:29:29.445Z,1.45
2022-10-09T13:31:57.631Z,1.80
2022-10-09T13:34:25.872Z,1.35
2022-10-09T13:36:54.045Z,1.75
2022-10-09T13:39:22.363Z,1.83
2022-10-09T13:41:52.897Z,1.70
2022-10-09T13:44:22.506Z,1.42
2022-10-09T13:46:50.938Z,1.60
2022-10-09T13:49:19.123Z,1.27
2022-10-09T13:51:47.360Z,2.05
2022-10-09T13:54:15.547Z,1.70
2022-10-09T13:56:43.721Z,1.73
2022-10-09T13:59:12.023Z,1.83
2022-10-09T14:01:41.622Z,1.55
2022-10-09T14:04:09.874Z,1.52
2022-10-09T14:06:38.593Z,1.50
2022-10-09T14:09:07.052Z,1.67
2022-10-09T14:11:35.404Z,1.98
2022-10-09T14:14:03.990Z,2.42
2022-10-09T14:16:32.480Z,1.70
2022-10-09T14:19:03.321Z,1.45
2022-10-09T14:21:31.888Z,3.47
2022-10-09T14:24:01.123Z,1.25
2022-10-09T14:26:29.620Z,1.30
2022-10-09T14:29:00.375Z,2.10
2022-10-09T14:31:28.883Z,3.60
2022-10-09T14:33:58.129Z,1.70
2022-10-09T14:36:27.834Z,1.52
2022-10-09T14:38:56.009Z,2.10
2022-10-09T14:41:24.556Z,3.30
2022-10-09T14:43:56.787Z,2.10
2022-10-09T14:46:25.542Z,1.60
2022-10-09T14:48:55.227Z,1.58
2022-10-09T14:51:24.270Z,1.70
2022-10-09T14:53:53.823Z,1.60
2022-10-09T14:56:22.615Z,1.45
2022-10-09T14:58:50.751Z,1.90
2022-10-09T15:01:19.520Z,1.50
2022-10-09T15:03:48.227Z,1.42
2022-10-09T15:06:18.270Z,1.80
2022-10-09T15:08:46.443Z,1.60
2022-10-09T15:11:15.930Z,1.47
2022-10-09T15:13:44.235Z,1.90
2022-10-09T15:16:13.832Z,1.60
2022-10-09T15:18:42.105Z,1.60
2022-10-09T15:21:13.446Z,1.60
2022-10-09T15:23:41.750Z,2.05
2022-10-09T15:26:10.592Z,1.58
2022-10-09T15:28:40.787Z,1.75
2022-10-09T15:31:10.573Z,1.40
2022-10-09T15:33:38.738Z,1.90
2022-10-09T15:36:06.937Z,1.70
2022-10-09T15:38:35.121Z,1.70
2022-10-09T15:41:03.315Z,1.67
2022-10-09T15:43:37.537Z,1.60
2022-10-09T15:46:08.845Z,2.33
2022-10-09T15:48:37.028Z,2.10
2022-10-09T15:51:06.892Z,2.27
2022-10-09T15:53:35.194Z,2.27
2022-10-09T15:56:05.882Z,1.60
2022-10-09T15:58:34.052Z,1.93
2022-10-09T16:01:04.279Z,1.50
2022-10-09T16:03:37.109Z,1.93
2022-10-09T16:06:06.435Z,1.80
2022-10-09T16:08:34.956Z,2.20
2022-10-09T16:11:05.649Z,1.83
2022-10-09T16:13:34.221Z,1.70
2022-10-09T16:16:06.259Z,1.97
2022-10-09T16:18:35.940Z,2.33
2022-10-09T16:21:07.492Z,2.20
2022-10-09T16:23:35.981Z,2.20
2022-10-09T16:26:04.754Z,2.50
2022-10-09T16:28:33.578Z,2.47
2022-10-09T16:31:02.037Z,2.30
2022-10-09T16:33:30.286Z,2.80
2022-10-09T16:36:09.486Z,2.10
2022-10-09T16:38:37.735Z,2.40
2022-10-09T16:41:08.823Z,2.57
2022-10-09T16:43:37.215Z,2.50
2022-10-09T16:46:17.296Z,3.10
2022-10-09T16:48:45.517Z,3.90
2022-10-09T16:51:16.632Z,2.87
2022-10-09T16:53:44.863Z,2.70
2022-10-09T16:56:14.308Z,2.63
2022-10-09T16:58:43.102Z,2.90
2022-10-09T17:01:11.719Z,3.30
2022-10-09T17:03:41.302Z,4.57
2022-10-09T17:06:11.128Z,4.80
2022-10-09T17:08:40.914Z,4.93
2022-10-09T17:11:10.272Z,4.97
2022-10-09T17:13:38.540Z,13.83
2022-10-09T17:16:07.498Z,5.53
2022-10-09T17:18:35.685Z,4.53
2022-10-09T17:21:04.410Z,4.40
2022-10-09T17:23:32.787Z,4.80
2022-10-09T17:26:06.025Z,3.60
2022-10-09T17:28:35.103Z,2.40
2022-10-09T17:31:03.997Z,2.00
2022-10-09T17:33:32.293Z,2.03
2022-10-09T17:36:00.599Z,1.83
2022-10-09T17:38:28.797Z,7.50
2022-10-09T17:40:57.005Z,4.27
2022-10-09T17:43:26.526Z,2.20
2022-10-09T17:45:54.681Z,2.40
2022-10-09T17:48:23.013Z,2.80
2022-10-09T17:50:52.509Z,2.47
2022-10-09T17:53:22.590Z,1.90
2022-10-09T17:55:51.750Z,2.10
2022-10-09T17:58:20.372Z,2.07
2022-10-09T18:00:50.240Z,2.07
2022-10-09T18:03:18.980Z,2.20
2022-10-09T18:05:48.501Z,2.03
2022-10-09T18:08:17.453Z,4.20
2022-10-09T18:10:45.686Z,3.30
2022-10-09T18:13:13.958Z,2.03
2022-10-09T18:15:42.656Z,2.10
2022-10-09T18:18:12.923Z,1.90
2022-10-09T18:20:41.627Z,1.90
2022-10-09T18:23:10.249Z,1.90
2022-10-09T18:25:42.296Z,2.10
2022-10-09T18:28:10.741Z,2.07
2022-10-09T18:30:42.142Z,2.40
2022-10-09T18:33:11.746Z,2.40
2022-10-09T18:35:40.472Z,2.20
2022-10-09T18:38:09.087Z,2.87
2022-10-09T18:40:43.187Z,2.37
2022-10-09T18:43:13.825Z,2.40
2022-10-09T18:45:45.574Z,2.63
2022-10-09T18:48:15.645Z,2.30
2022-10-09T18:50:44.113Z,1.90
2022-10-09T18:53:12.919Z,2.00
2022-10-09T18:55:43.084Z,2.40
2022-10-09T18:58:11.577Z,2.43
2022-10-09T19:00:40.123Z,2.47
2022-10-09T19:03:08.576Z,2.13
2022-10-09T19:05:38.125Z,2.23
2022-10-09T19:08:06.339Z,2.10
2022-10-09T19:10:34.588Z,2.23
2022-10-09T19:13:02.739Z,2.30
2022-10-09T19:15:31.075Z,2.20
2022-10-09T19:17:59.447Z,2.50
2022-10-09T19:20:28.881Z,2.83
2022-10-09T19:22:58.431Z,2.40
2022-10-09T19:25:27.058Z,2.70
2022-10-09T19:27:55.338Z,2.93
2022-10-09T19:30:23.540Z,2.93
2022-10-09T19:32:52.721Z,3.93
2022-10-09T19:35:21.284Z,3.40
2022-10-09T19:37:49.767Z,2.90
2022-10-09T19:40:19.659Z,2.80
2022-10-09T19:42:47.865Z,2.60
2022-10-09T19:45:16.117Z,3.23
2022-10-09T19:47:44.295Z,2.90
2022-10-09T19:50:14.911Z,3.07
2022-10-09T19:52:43.068Z,3.20
2022-10-09T19:55:11.349Z,2.77
2022-10-09T19:57:40.966Z,2.97
2022-10-09T20:00:10.276Z,3.00
2022-10-09T20:02:38.492Z,4.70
2022-10-09T20:05:07.090Z,3.67
2022-10-09T20:07:35.282Z,4.00
2022-10-09T20:10:03.961Z,5.03
2022-10-09T20:12:32.125Z,4.40
2022-10-09T20:15:01.730Z,3.97
2022-10-09T20:17:33.830Z,4.70
2022-10-09T20:20:04.401Z,4.90
2022-10-09T20:22:32.578Z,3.40
2022-10-09T20:25:00.862Z,3.40
2022-10-09T20:27:29.038Z,3.93
2022-10-09T20:29:57.216Z,4.10
2022-10-09T20:32:26.741Z,4.77
2022-10-09T20:34:54.911Z,4.50
2022-10-09T20:37:23.083Z,4.53
2022-10-09T20:39:51.253Z,4.47
2022-10-09T20:42:19.450Z,4.30
2022-10-09T20:44:47.758Z,4.10
2022-10-09T20:47:15.965Z,3.80
2022-10-09T20:49:45.650Z,4.37
2022-10-09T20:52:13.831Z,4.50
2022-10-09T20:54:42.018Z,4.50
2022-10-09T20:57:10.229Z,4.47
2022-10-09T20:59:38.423Z,4.53
2022-10-09T21:02:06.589Z,4.20
2022-10-09T21:04:34.823Z,3.83
2022-10-09T21:07:04.462Z,3.70
2022-10-09T21:09:33.492Z,3.70
2022-10-09T21:12:02.359Z,3.60
2022-10-09T21:14:30.542Z,4.20
2022-10-09T21:16:58.714Z,3.63
2022-10-09T21:19:27.001Z,3.80
2022-10-09T21:21:55.198Z,3.80
2022-10-09T21:24:24.749Z,3.37
2022-10-09T21:26:52.935Z,3.27
2022-10-09T21:29:21.124Z,3.63
2022-10-09T21:31:49.292Z,3.97
2022-10-09T21:34:17.453Z,3.50
2022-10-09T21:37:16.030Z,3.57
2022-10-09T21:39:52.967Z,4.00
2022-10-09T21:42:21.160Z,3.30
2022-10-09T21:44:49.359Z,4.17
2022-10-09T21:47:19.121Z,4.13
2022-10-09T21:49:47.324Z,3.50
2022-10-09T21:52:15.508Z,4.10
2022-10-09T21:54:45.061Z,4.10
2022-10-09T21:57:13.303Z,4.53
2022-10-09T21:59:41.468Z,4.30
2022-10-09T22:02:09.639Z,4.20
2022-10-09T22:04:37.817Z,3.70
2022-10-09T22:07:06.056Z,3.40
2022-10-09T22:09:34.251Z,3.40
2022-10-09T22:12:03.933Z,3.87
2022-10-09T22:14:32.237Z,4.20
2022-10-09T22:17:00.618Z,3.97
2022-10-09T22:19:28.773Z,3.67
2022-10-09T22:21:56.944Z,3.60
2022-10-09T22:24:29.101Z,3.80
2022-10-09T22:26:57.728Z,3.77
2022-10-09T22:29:27.637Z,3.93
2022-10-09T22:31:55.818Z,3.40
2022-10-09T22:34:24.049Z,3.33
2022-10-09T22:36:52.208Z,3.93
2022-10-09T22:39:20.415Z,3.77
2022-10-09T22:41:48.627Z,3.60
2022-10-09T22:44:16.796Z,3.40
2022-10-09T22:46:46.823Z,4.00
2022-10-09T22:49:15.841Z,3.80
2022-10-09T22:51:44.154Z,3.33
2022-10-09T22:54:12.583Z,3.27
2022-10-09T22:56:41.842Z,3.20
2022-10-09T22:59:11.574Z,3.10
2022-10-09T23:01:41.020Z,3.83
2022-10-09T23:04:12.844Z,3.00
2022-10-09T23:06:41.590Z,3.27
2022-10-09T23:09:10.977Z,3.13
2022-10-09T23:11:39.151Z,3.00
2022-10-09T23:14:07.831Z,3.10
2022-10-09T23:16:36.148Z,3.17
2022-10-09T23:19:07.078Z,3.40
2022-10-09T23:21:37.377Z,3.03
2022-10-09T23:24:05.700Z,2.93
2022-10-09T23:26:34.373Z,3.23
2022-10-09T23:29:03.418Z,3.40
2022-10-09T23:31:31.840Z,3.20
2022-10-09T23:34:00.464Z,3.20
2022-10-09T23:36:29.676Z,3.23
2022-10-09T23:39:00.263Z,3.60
2022-10-09T23:41:29.360Z,3.70
2022-10-09T23:43:57.632Z,3.60
2022-10-09T23:46:26.632Z,3.40
2022-10-09T23:48:55.222Z,3.20
2022-10-09T23:51:24.730Z,3.70
2022-10-09T23:53:53.223Z,4.00
2022-10-09T23:56:23.489Z,3.60
2022-10-09T23:58:52.020Z,3.53
